Time;durP1;ratioP1;P1;durP2;ratioP2;P2;SDS_P1;SDS_P2;PMS_P1;PMS_P2;Temp;Humidity;BMP_temperature;BMP_pressure;BME280_temperature;BME280_humidity;BME280_pressure;Samples;Min_cycle;Max_cycle;Signal;HPM_P1;HPM_P2
2021/11/01 00:01:40;;;;;;;10.10;9.20;;;10.20;99.90;;;;;;6229980;23;20455;-86
2021/11/01 00:04:05;;;;;;;10.20;9.30;;;10.10;99.90;;;;;;6203972;23;20398;-85
2021/11/01 00:06:32;;;;;;;11.30;9.20;;;10.20;99.90;;;;;;6207195;23;20406;-84
2021/11/01 00:09:01;;;;;;;9.83;8.83;;;10.20;99.90;;;;;;6212050;23;20159;-85
2021/11/01 00:11:26;;;;;;;10.67;8.43;;;10.20;99.90;;;;;;6204054;23;20468;-85
2021/11/01 00:13:55;;;;;;;8.57;7.33;;;10.20;99.90;;;;;;6232743;23;20424;-85
2021/11/01 00:19:22;;;;;;;9.67;8.37;;;10.20;99.90;;;;;;6209899;23;20394;-85
2021/11/01 00:22:05;;;;;;;8.80;8.00;;;10.20;99.90;;;;;;6198925;23;20431;-85
2021/11/01 00:24:41;;;;;;;9.50;8.60;;;10.20;99.90;;;;;;6206719;23;20395;-85
2021/11/01 00:27:09;;;;;;;10.10;9.20;;;10.20;99.90;;;;;;6230432;23;20421;-85
2021/11/01 00:29:34;;;;;;;9.40;8.50;;;10.20;99.90;;;;;;6203030;23;20493;-85
2021/11/01 00:32:06;;;;;;;8.40;7.60;;;10.20;99.90;;;;;;6205318;23;20432;-85
2021/11/01 00:34:32;;;;;;;9.07;6.70;;;10.30;99.90;;;;;;6177031;23;20175;-84
2021/11/01 00:36:58;;;;;;;5.60;5.13;;;10.50;99.90;;;;;;6204048;23;20880;-84
2021/11/01 00:40:00;;;;;;;5.60;5.10;;;10.80;99.90;;;;;;6202319;23;20194;-85
2021/11/01 00:42:47;;;;;;;4.60;4.20;;;11.00;99.90;;;;;;6152608;23;20406;-85
2021/11/01 00:45:13;;;;;;;4.33;3.93;;;11.30;99.90;;;;;;6199658;23;20389;-85
2021/11/01 00:47:38;;;;;;;3.80;3.50;;;11.50;99.90;;;;;;6194123;23;20475;-84
2021/11/01 00:50:05;;;;;;;3.67;3.37;;;11.70;99.90;;;;;;6203016;23;20186;-85
2021/11/01 00:52:31;;;;;;;3.17;2.90;;;12.00;99.90;;;;;;6201447;23;20839;-84
2021/11/01 00:55:03;;;;;;;3.10;2.80;;;12.20;99.90;;;;;;6201981;23;20790;-85
2021/11/01 00:57:29;;;;;;;2.90;2.70;;;12.40;99.90;;;;;;6203073;23;21313;-84
2021/11/01 00:59:57;;;;;;;3.30;3.10;;;12.50;99.90;;;;;;6203387;23;20769;-85
2021/11/01 01:02:24;;;;;;;3.47;3.17;;;12.50;99.90;;;;;;6204746;23;20406;-84
2021/11/01 01:04:49;;;;;;;4.07;3.67;;;12.50;99.90;;;;;;6204542;23;20744;-85
2021/11/01 01:07:15;;;;;;;3.40;3.10;;;12.50;99.90;;;;;;6203664;23;20390;-85
2021/11/01 01:09:43;;;;;;;3.20;2.97;;;12.50;99.90;;;;;;6201599;23;20224;-85
2021/11/01 01:12:09;;;;;;;2.83;2.63;;;12.50;99.90;;;;;;6177995;23;20177;-84
2021/11/01 01:14:47;;;;;;;4.87;3.87;;;12.60;99.90;;;;;;6206003;23;20418;-85
2021/11/01 01:17:16;;;;;;;4.37;3.60;;;12.60;99.90;;;;;;6203558;23;20439;-84
2021/11/01 01:19:53;;;;;;;4.53;4.13;;;12.60;99.90;;;;;;6224466;23;20479;-85
2021/11/01 01:22:32;;;;;;;4.77;4.37;;;12.50;99.90;;;;;;6225897;23;20615;-84
2021/11/01 01:25:10;;;;;;;4.40;4.00;;;12.40;99.90;;;;;;6202561;23;20464;-85
2021/11/01 01:27:37;;;;;;;4.60;4.30;;;12.40;99.90;;;;;;6206174;23;20925;-85
2021/11/01 01:30:05;;;;;;;6.33;4.73;;;12.40;99.90;;;;;;6201932;23;20394;-84
2021/11/01 01:32:32;;;;;;;5.87;5.27;;;12.40;99.90;;;;;;6202947;23;20416;-85
2021/11/01 01:34:58;;;;;;;6.40;5.80;;;12.30;99.90;;;;;;6203031;23;20451;-85
2021/11/01 01:37:23;;;;;;;6.00;5.50;;;12.10;99.90;;;;;;6209898;23;20394;-85
2021/11/01 01:39:49;;;;;;;6.07;5.57;;;12.00;99.90;;;;;;6183114;23;20445;-85
2021/11/01 01:42:15;;;;;;;5.50;5.00;;;11.90;99.90;;;;;;6202627;23;20158;-85
2021/11/01 01:44:41;;;;;;;5.43;5.00;;;11.90;99.90;;;;;;6177826;23;20171;-84
2021/11/01 01:47:08;;;;;;;5.57;5.10;;;11.90;99.90;;;;;;6204944;23;20811;-85
2021/11/01 01:49:34;;;;;;;6.03;5.53;;;11.90;99.90;;;;;;6177936;23;20402;-85
2021/11/01 01:52:00;;;;;;;6.43;5.80;;;11.90;99.90;;;;;;6203709;23;20467;-85
2021/11/01 01:54:27;;;;;;;5.77;5.27;;;12.00;99.90;;;;;;6202286;23;20940;-85
2021/11/01 01:57:03;;;;;;;6.53;5.27;;;11.90;99.90;;;;;;6228853;23;20158;-85
2021/11/01 01:59:29;;;;;;;5.73;5.23;;;12.00;99.90;;;;;;6203037;23;20393;-85
2021/11/01 02:01:56;;;;;;;5.93;5.30;;;12.00;99.90;;;;;;6203963;23;20402;-86
2021/11/01 02:04:27;;;;;;;5.90;5.30;;;12.00;99.90;;;;;;6207713;23;20455;-85
2021/11/01 02:07:09;;;;;;;5.97;5.47;;;12.00;99.90;;;;;;6202501;23;20393;-84
2021/11/01 02:10:01;;;;;;;6.03;5.50;;;12.10;99.90;;;;;;6203005;23;20397;-85
2021/11/01 02:13:07;;;;;;;6.13;5.63;;;12.10;99.90;;;;;;6205041;23;20405;-85
2021/11/01 02:15:40;;;;;;;5.73;5.23;;;12.20;99.90;;;;;;6204393;23;20400;-85
2021/11/01 02:18:07;;;;;;;5.70;5.20;;;12.20;99.90;;;;;;6203113;23;20405;-86
2021/11/01 02:20:36;;;;;;;5.37;4.90;;;12.30;99.90;;;;;;6202096;23;20560;-86
2021/11/01 02:23:13;;;;;;;5.87;5.37;;;12.30;99.90;;;;;;6203895;23;20499;-86
2021/11/01 02:25:41;;;;;;;5.23;4.80;;;12.20;99.90;;;;;;6202875;23;20837;-86
2021/11/01 02:28:14;;;;;;;6.03;5.53;;;12.20;99.90;;;;;;6218251;23;20452;-86
2021/11/01 02:30:40;;;;;;;5.40;4.90;;;12.10;99.90;;;;;;6204716;23;20464;-85
2021/11/01 02:33:08;;;;;;;5.70;5.20;;;12.10;99.90;;;;;;6203443;23;20401;-85
2021/11/01 02:35:34;;;;;;;6.17;5.60;;;12.10;99.90;;;;;;6203120;23;20381;-85
2021/11/01 02:38:02;;;;;;;5.07;4.67;;;12.00;99.90;;;;;;6203699;23;20743;-85
2021/11/01 02:40:29;;;;;;;6.37;5.70;;;12.00;99.90;;;;;;6203917;23;20433;-84
2021/11/01 02:42:56;;;;;;;5.30;4.80;;;11.80;99.90;;;;;;6202641;23;20390;-84
2021/11/01 02:45:22;;;;;;;4.87;4.47;;;11.80;99.90;;;;;;6175872;23;20441;-84
2021/11/01 02:47:58;;;;;;;5.57;4.80;;;11.90;99.90;;;;;;6204017;23;20468;-85
2021/11/01 02:50:23;;;;;;;5.50;4.97;;;12.00;99.90;;;;;;6205647;23;20692;-85
2021/11/01 02:52:49;;;;;;;6.13;5.53;;;12.00;99.90;;;;;;6205311;23;20691;-85
2021/11/01 02:55:16;;;;;;;5.93;5.17;;;12.00;99.90;;;;;;6205418;23;20714;-84
2021/11/01 02:57:54;;;;;;;5.77;5.27;;;12.00;99.90;;;;;;6232934;23;20590;-85
2021/11/01 03:00:31;;;;;;;4.20;3.90;;;12.00;99.90;;;;;;6232314;23;20468;-84
2021/11/01 03:02:57;;;;;;;2.43;1.47;;;12.00;99.90;;;;;;6206511;23;20402;-84
2021/11/01 03:05:24;;;;;;;1.27;0.80;;;12.00;99.90;;;;;;6205553;23;20460;-83
2021/11/01 03:07:53;;;;;;;1.43;0.70;;;11.90;99.90;;;;;;6217326;23;20401;-84
2021/11/01 03:13:21;;;;;;;1.03;0.60;;;11.80;99.90;;;;;;6235144;23;20374;-84
2021/11/01 03:15:57;;;;;;;1.20;0.60;;;11.70;99.90;;;;;;6207497;23;20382;-85
2021/11/01 03:18:41;;;;;;;0.80;0.57;;;11.70;99.90;;;;;;6203835;23;20408;-84
2021/11/01 03:21:10;;;;;;;0.50;0.50;;;11.60;99.90;;;;;;6204886;23;20533;-83
2021/11/01 03:23:39;;;;;;;0.50;0.40;;;11.60;99.90;;;;;;6206083;23;20423;-84
2021/11/01 03:26:10;;;;;;;1.50;0.80;;;11.50;99.90;;;;;;6204062;23;20402;-85
2021/11/01 03:28:38;;;;;;;2.40;0.60;;;11.30;99.90;;;;;;6203742;23;20390;-84
2021/11/01 03:31:06;;;;;;;1.70;0.70;;;11.30;99.90;;;;;;6205008;23;21150;-84
2021/11/01 03:33:38;;;;;;;1.80;0.50;;;11.20;99.90;;;;;;6205048;23;20455;-84
2021/11/01 03:36:05;;;;;;;1.93;0.90;;;11.20;99.90;;;;;;6203881;23;20740;-84
2021/11/01 03:38:33;;;;;;;3.90;1.00;;;11.20;99.90;;;;;;6203356;23;20409;-84
2021/11/01 03:41:05;;;;;;;1.30;0.63;;;11.20;99.90;;;;;;6204432;23;20525;-84
2021/11/01 03:43:36;;;;;;;1.23;1.00;;;11.20;99.90;;;;;;6207359;23;20390;-84
2021/11/01 03:46:04;;;;;;;2.23;0.87;;;11.10;99.90;;;;;;6203178;23;20685;-84
2021/11/01 03:48:36;;;;;;;0.80;0.60;;;11.20;99.90;;;;;;6207189;23;20444;-84
2021/11/01 03:51:10;;;;;;;2.00;0.97;;;11.20;99.90;;;;;;6204985;23;20398;-84
2021/11/01 03:53:37;;;;;;;1.60;0.80;;;11.30;99.90;;;;;;6204322;23;20581;-84
2021/11/01 03:56:05;;;;;;;2.37;0.70;;;11.30;99.90;;;;;;6204980;23;20405;-84
2021/11/01 03:58:31;;;;;;;4.20;0.87;;;11.50;99.90;;;;;;6204046;23;20394;-84
2021/11/01 04:00:57;;;;;;;2.23;0.70;;;11.40;99.90;;;;;;6204580;23;20447;-84
2021/11/01 04:03:24;;;;;;;1.30;0.60;;;11.30;99.90;;;;;;6204951;23;20481;-84
2021/11/01 04:05:54;;;;;;;0.80;0.60;;;11.20;99.90;;;;;;6204569;23;20171;-84
2021/11/01 04:08:21;;;;;;;1.67;1.00;;;11.20;99.90;;;;;;6204886;23;20444;-84
2021/11/01 04:10:47;;;;;;;2.00;1.03;;;11.20;99.90;;;;;;6204307;23;20398;-84
2021/11/01 04:13:13;;;;;;;2.00;0.80;;;11.20;99.90;;;;;;6203224;23;20393;-84
2021/11/01 04:15:44;;;;;;;2.60;1.10;;;11.10;99.90;;;;;;6179878;23;20492;-84
2021/11/01 04:18:12;;;;;;;1.53;0.80;;;11.00;99.90;;;;;;6203323;23;20173;-85
2021/11/01 04:20:49;;;;;;;3.37;1.20;;;11.00;99.90;;;;;;6204606;23;20734;-84
2021/11/01 04:23:18;;;;;;;1.67;0.90;;;10.90;99.90;;;;;;6205280;23;20468;-84
2021/11/01 04:25:44;;;;;;;1.73;0.83;;;10.90;99.90;;;;;;6203699;23;20412;-84
2021/11/01 04:28:09;;;;;;;3.97;1.10;;;10.90;99.90;;;;;;6206603;23;20395;-84
2021/11/01 04:30:40;;;;;;;2.33;1.10;;;10.80;99.90;;;;;;6204995;23;20206;-84
2021/11/01 04:33:14;;;;;;;3.23;0.97;;;10.80;99.90;;;;;;6205266;23;20502;-84
2021/11/01 04:35:41;;;;;;;1.77;1.00;;;10.80;99.90;;;;;;6204349;23;20777;-84
2021/11/01 04:38:40;;;;;;;1.57;0.70;;;10.70;99.90;;;;;;6215526;23;20394;-84
2021/11/01 04:54:36;;;;;;;1.00;0.83;;;10.80;99.90;;;;;;6178401;23;20393;-85
2021/11/01 04:57:05;;;;;;;2.13;0.80;;;10.90;99.90;;;;;;6164145;23;20403;-85
2021/11/01 04:59:51;;;;;;;2.50;1.00;;;10.90;99.90;;;;;;6197725;23;20866;-84
2021/11/01 05:02:18;;;;;;;2.13;0.90;;;10.90;99.90;;;;;;6174030;23;20410;-84
2021/11/01 05:04:47;;;;;;;6.43;0.83;;;10.90;99.90;;;;;;6172673;23;20418;-84
2021/11/01 05:07:13;;;;;;;4.10;1.00;;;10.90;99.90;;;;;;6170655;23;20395;-85
2021/11/01 05:10:12;;;;;;;1.70;0.80;;;10.90;99.90;;;;;;6172450;23;20409;-85
2021/11/01 05:12:39;;;;;;;1.53;0.90;;;10.90;99.90;;;;;;6194437;23;20202;-85
2021/11/01 05:28:09;;;;;;;2.83;1.80;;;10.80;99.90;;;;;;6201836;23;20387;-85
2021/11/01 05:30:37;;;;;;;2.60;2.40;;;10.90;99.90;;;;;;6173331;23;20471;-84
2021/11/01 05:33:34;;;;;;;5.17;4.23;;;11.00;99.90;;;;;;6171511;23;20718;-84
2021/11/01 05:36:01;;;;;;;4.40;3.97;;;10.90;99.90;;;;;;6199094;23;20394;-84
2021/11/01 05:38:34;;;;;;;3.70;3.40;;;10.90;99.90;;;;;;6170500;23;20821;-84
2021/11/01 05:41:10;;;;;;;5.33;3.50;;;10.90;99.90;;;;;;6199730;23;20442;-85
2021/11/01 05:43:42;;;;;;;6.50;3.13;;;10.80;99.90;;;;;;6170966;23;20499;-85
2021/11/01 05:46:17;;;;;;;3.90;3.20;;;10.70;99.90;;;;;;6199101;23;20808;-85
2021/11/01 05:48:54;;;;;;;4.10;3.10;;;10.70;99.90;;;;;;6200735;23;20501;-85
2021/11/01 05:51:22;;;;;;;3.60;3.30;;;10.70;99.90;;;;;;6202663;23;20401;-85
2021/11/01 05:53:57;;;;;;;6.93;3.93;;;10.70;99.90;;;;;;6201749;23;20800;-85
2021/11/01 06:04:33;;;;;;;3.70;3.30;;;10.70;99.90;;;;;;6235218;23;20389;-85
2021/11/01 06:15:07;;;;;;;5.90;4.63;;;10.50;99.90;;;;;;6228652;23;20392;-86
2021/11/01 06:17:34;;;;;;;4.40;3.47;;;10.50;99.90;;;;;;6202298;23;20429;-86
2021/11/01 06:20:01;;;;;;;2.73;2.43;;;10.50;99.90;;;;;;6202424;23;20445;-86
2021/11/01 06:22:30;;;;;;;3.20;2.60;;;10.50;99.90;;;;;;6177159;23;20394;-85
2021/11/01 06:25:33;;;;;;;2.60;1.80;;;10.50;99.90;;;;;;6211616;23;20895;-85
2021/11/01 06:27:59;;;;;;;1.50;1.40;;;10.60;99.90;;;;;;6203909;23;20444;-85
2021/11/01 06:30:35;;;;;;;1.63;1.53;;;10.50;99.90;;;;;;6204817;23;20862;-84
2021/11/01 06:33:19;;;;;;;3.20;1.60;;;10.50;99.90;;;;;;6204528;23;20212;-84
2021/11/01 06:44:34;;;;;;;1.30;1.10;;;10.20;99.90;;;;;;6210807;23;20431;-86
2021/11/01 06:55:38;;;;;;;1.67;0.90;;;10.20;99.90;;;;;;6199580;23;20438;-85
2021/11/01 07:14:47;;;;;;;4.07;1.50;;;10.00;99.90;;;;;;6205722;23;20389;-90
2021/11/01 07:17:35;;;;;;;1.90;0.90;;;10.00;99.90;;;;;;6174966;23;20803;-91
2021/11/01 08:39:36;;;;;;;1.10;0.80;;;9.70;99.90;;;;;;6194934;23;20402;-87
2021/11/01 08:47:43;;;;;;;4.97;1.20;;;9.60;99.90;;;;;;6174128;23;20437;-87
2021/11/01 09:20:43;;;;;;;1.83;1.03;;;9.90;99.90;;;;;;6203768;23;20445;-94
2021/11/01 09:23:51;;;;;;;3.00;1.10;;;9.90;99.90;;;;;;6178522;23;20406;-96
2021/11/01 09:26:36;;;;;;;2.00;1.33;;;9.90;99.90;;;;;;6176654;23;20407;-94
2021/11/01 09:29:19;;;;;;;1.13;1.00;;;10.00;99.90;;;;;;6202112;23;20402;-93
2021/11/01 09:42:52;;;;;;;1.10;1.00;;;10.20;99.90;;;;;;6204499;23;20463;-96
2021/11/01 09:45:21;;;;;;;1.50;1.40;;;10.40;99.90;;;;;;6176814;23;20476;-94
2021/11/01 09:47:47;;;;;;;4.17;1.80;;;10.40;99.90;;;;;;6186852;23;20418;-94
2021/11/01 09:50:24;;;;;;;1.50;1.03;;;10.40;99.90;;;;;;6199278;23;20406;-93
2021/11/01 09:53:25;;;;;;;0.97;0.90;;;10.50;99.90;;;;;;6199305;23;20393;-91
2021/11/01 09:56:28;;;;;;;;;;;;;;;;;;;;;
2021/11/01 10:01:51;;;;;;;2.10;1.20;;;10.80;99.90;;;;;;6121552;23;20972;-93
2021/11/01 10:04:41;;;;;;;0.77;0.77;;;10.90;99.90;;;;;;6102135;23;20429;-94
2021/11/01 10:07:46;;;;;;;1.23;1.00;;;10.80;99.90;;;;;;6137711;23;20405;-96
2021/11/01 12:58:48;;;;;;;2.00;1.57;;;11.30;99.90;;;;;;6216014;22;20842;-86
2021/11/01 13:01:16;;;;;;;1.93;1.70;;;11.30;99.90;;;;;;6200292;23;20761;-87
2021/11/01 13:04:05;;;;;;;1.93;1.80;;;11.30;99.90;;;;;;6178690;23;20405;-93
2021/11/01 13:07:01;;;;;;;2.20;2.00;;;11.30;99.90;;;;;;6210059;23;20398;-88
2021/11/01 13:09:44;;;;;;;3.00;1.57;;;11.30;99.90;;;;;;6225985;23;20416;-87
2021/11/01 13:20:21;;;;;;;2.43;2.30;;;11.20;99.90;;;;;;6225485;23;20432;-86
2021/11/01 13:22:49;;;;;;;9.97;2.20;;;11.20;99.90;;;;;;6195817;23;20445;-87
2021/11/01 13:38:59;;;;;;;3.00;2.30;;;11.10;99.90;;;;;;6229566;23;20382;-88
2021/11/01 13:41:29;;;;;;;4.00;3.10;;;11.20;99.90;;;;;;6194478;23;20480;-87
2021/11/01 13:44:35;;;;;;;4.90;3.50;;;11.20;99.90;;;;;;6195400;23;20404;-87
2021/11/01 13:47:04;;;;;;;6.27;4.70;;;11.20;99.90;;;;;;6045163;23;20406;-85
2021/11/01 13:49:33;;;;;;;5.50;3.70;;;11.10;99.90;;;;;;6068664;23;20425;-85
2021/11/01 13:55:05;;;;;;;4.77;2.70;;;11.10;99.90;;;;;;6222626;23;20745;-85
2021/11/01 13:57:39;;;;;;;2.90;2.47;;;11.10;99.90;;;;;;6195775;23;20657;-84
2021/11/01 14:11:42;;;;;;;8.27;5.00;;;11.30;99.90;;;;;;6229045;23;20932;-95
2021/11/01 14:30:42;;;;;;;3.40;2.37;;;11.20;99.90;;;;;;6207051;23;20402;-92
2021/11/01 15:06:52;;;;;;;4.87;3.87;;;10.90;99.90;;;;;;6245895;22;20397;-94
2021/11/01 15:11:51;;;;;;;4.70;3.57;;;11.10;99.90;;;;;;6225979;23;20505;-94
2021/11/01 15:17:09;;;;;;;4.70;4.10;;;11.30;99.90;;;;;;6233479;23;20400;-95
2021/11/01 15:23:06;;;;;;;2.87;2.67;;;11.50;99.90;;;;;;6239761;23;20398;-95
2021/11/01 15:25:35;;;;;;;3.60;3.30;;;11.60;99.90;;;;;;6224873;23;20159;-94
2021/11/01 16:19:39;;;;;;;3.07;2.60;;;10.00;99.90;;;;;;6229141;23;20759;-93
2021/11/01 16:22:06;;;;;;;4.10;2.80;;;9.90;99.90;;;;;;6200728;23;20445;-92
2021/11/01 16:24:35;;;;;;;3.13;2.30;;;9.90;99.90;;;;;;6198501;23;20393;-91
2021/11/01 16:27:14;;;;;;;4.37;3.47;;;10.00;99.90;;;;;;6200219;23;20416;-91
2021/11/01 16:32:25;;;;;;;2.50;2.30;;;9.90;99.90;;;;;;6227487;22;20481;-92
2021/11/01 16:34:56;;;;;;;4.30;3.07;;;9.80;99.90;;;;;;6203826;23;20399;-92
2021/11/01 16:37:27;;;;;;;3.30;3.00;;;9.90;99.90;;;;;;6201346;23;20449;-90
2021/11/01 16:40:04;;;;;;;3.90;3.20;;;9.90;99.90;;;;;;6212977;23;20748;-92
2021/11/01 16:42:37;;;;;;;3.43;2.87;;;9.80;99.90;;;;;;6202132;23;20409;-93
2021/11/01 16:45:14;;;;;;;4.53;2.27;;;9.70;99.90;;;;;;6228488;23;20386;-91
2021/11/01 16:47:48;;;;;;;5.23;2.50;;;9.60;99.90;;;;;;6201137;23;20406;-91
2021/11/01 16:50:18;;;;;;;5.83;3.63;;;9.50;99.90;;;;;;6198897;23;20455;-92
2021/11/01 16:52:47;;;;;;;3.00;2.80;;;9.40;99.90;;;;;;6201645;23;20401;-92
2021/11/01 16:55:18;;;;;;;3.27;2.70;;;9.30;99.90;;;;;;6203235;23;20413;-92
2021/11/01 16:57:47;;;;;;;3.30;3.10;;;9.30;99.90;;;;;;6200496;23;20420;-91
2021/11/01 17:00:44;;;;;;;2.80;2.60;;;9.30;99.90;;;;;;6201167;23;20893;-90
2021/11/01 17:05:59;;;;;;;3.23;2.83;;;9.20;99.90;;;;;;6227409;23;20942;-91
2021/11/01 17:22:30;;;;;;;17.10;13.37;;;9.30;99.90;;;;;;6227752;22;20923;-91
2021/11/01 17:27:37;;;;;;;9.70;7.73;;;9.40;99.90;;;;;;6233860;23;20402;-92
2021/11/01 18:38:55;;;;;;;8.87;7.97;;;9.60;99.90;;;;;;6236846;23;20945;-91
2021/11/01 18:41:37;;;;;;;8.77;7.87;;;9.50;99.90;;;;;;6236558;23;20506;-91
2021/11/01 18:52:15;;;;;;;14.30;10.33;;;9.20;99.90;;;;;;6170185;23;20385;-86
2021/11/01 18:54:43;;;;;;;15.27;11.80;;;9.10;99.90;;;;;;6205603;23;20406;-88
2021/11/01 18:57:11;;;;;;;11.97;10.73;;;9.00;99.90;;;;;;6230983;23;20394;-89
2021/11/01 18:59:42;;;;;;;11.20;9.50;;;8.80;99.90;;;;;;6207638;23;20474;-89
2021/11/01 19:02:41;;;;;;;8.80;7.93;;;8.70;99.90;;;;;;6203536;23;20793;-87
2021/11/01 19:05:16;;;;;;;8.73;7.93;;;8.70;99.90;;;;;;6205476;23;20402;-88
2021/11/01 19:11:14;;;;;;;9.13;8.33;;;8.80;99.90;;;;;;6197857;23;20759;-87
2021/11/01 20:13:47;;;;;;;20.13;18.17;;;7.70;99.90;;;;;;6229710;23;20442;-96
